Time;durP1;ratioP1;P1;durP2;ratioP2;P2;SDS_P1;SDS_P2;PMS_P1;PMS_P2;Temp;Humidity;BMP_temperature;BMP_pressure;BME280_temperature;BME280_humidity;BME280_pressure;Samples;Min_cycle;Max_cycle;Signal;HPM_P1;HPM_P2
2023/11/18 00:00:12;;;;;;;0.60;0.60;;;;;;;4.10;100.00;97696.28;29395;238;63009;-55
2023/11/18 00:00:44;;;;;;;0.60;0.60;;;;;;;4.08;100.00;97693.81;29395;226;63005;-55
2023/11/18 00:01:15;;;;;;;0.60;0.60;;;;;;;4.07;100.00;97696.72;29395;253;63009;-54
2023/11/18 00:01:46;;;;;;;0.60;0.60;;;;;;;4.03;100.00;97696.38;29395;243;63005;-54
2023/11/18 00:02:18;;;;;;;0.60;0.60;;;;;;;4.02;100.00;97695.56;29395;375;63009;-55
2023/11/18 00:02:49;;;;;;;0.60;0.60;;;;;;;4.01;100.00;97696.59;29394;202;64009;-54
2023/11/18 00:03:20;;;;;;;0.60;0.60;;;;;;;4.00;100.00;97694.16;29395;222;63009;-54
2023/11/18 00:03:51;;;;;;;0.60;0.60;;;;;;;3.98;100.00;97689.00;29395;287;63004;-55
2023/11/18 00:04:23;;;;;;;0.60;0.60;;;;;;;3.99;100.00;97696.00;29395;225;63009;-54
2023/11/18 00:04:54;;;;;;;0.57;0.57;;;;;;;4.00;100.00;97692.28;29395;223;63004;-62
2023/11/18 00:05:26;;;;;;;0.60;0.60;;;;;;;3.97;100.00;97690.06;29395;227;63009;-54
2023/11/18 00:05:59;;;;;;;0.57;0.57;;;;;;;3.96;100.00;97691.09;29395;218;63004;-55
2023/11/18 00:06:31;;;;;;;0.60;0.60;;;;;;;3.95;100.00;97688.66;29395;294;63008;-55
2023/11/18 00:07:03;;;;;;;0.60;0.60;;;;;;;3.93;100.00;97686.19;29394;243;64005;-54
2023/11/18 00:07:35;;;;;;;0.60;0.60;;;;;;;3.92;100.00;97695.28;29394;206;64014;-55
2023/11/18 00:08:06;;;;;;;0.60;0.60;;;;;;;3.91;100.00;97693.66;29395;204;63005;-55
2023/11/18 00:08:37;;;;;;;0.60;0.60;;;;;;;3.92;100.00;97689.09;29395;248;63009;-55
2023/11/18 00:09:15;;;;;;;0.70;0.70;;;;;;;3.92;100.00;97697.16;29395;217;63005;-55
2023/11/18 00:09:46;;;;;;;0.50;0.50;;;;;;;3.91;100.00;97698.22;29395;241;63009;-54
2023/11/18 00:10:18;;;;;;;0.60;0.60;;;;;;;3.91;100.00;97690.97;29395;197;63005;-55
2023/11/18 00:10:49;;;;;;;0.60;0.60;;;;;;;3.91;100.00;97693.66;29395;365;63009;-56
2023/11/18 00:11:20;;;;;;;0.60;0.60;;;;;;;3.93;100.00;97691.56;29394;213;64004;-55
2023/11/18 00:11:52;;;;;;;0.60;0.60;;;;;;;3.94;100.00;97703.12;29395;304;63009;-55
2023/11/18 00:12:26;;;;;;;0.60;0.60;;;;;;;3.93;100.00;97701.47;29394;223;64004;-55
2023/11/18 00:12:59;;;;;;;0.60;0.60;;;;;;;3.92;100.00;97695.28;29394;222;64013;-56
2023/11/18 00:13:30;;;;;;;0.60;0.60;;;;;;;3.92;100.00;97695.28;29395;211;63004;-56
2023/11/18 00:14:04;;;;;;;0.52;0.52;;;;;;;3.91;100.00;97698.22;29394;232;64013;-55
2023/11/18 00:14:37;;;;;;;0.60;0.60;;;;;;;3.90;100.00;97700.06;29395;220;63015;-55
2023/11/18 00:15:11;;;;;;;0.50;0.50;;;;;;;3.90;100.00;97702.75;29395;281;63009;-56
2023/11/18 00:15:42;;;;;;;0.60;0.60;;;;;;;3.89;100.00;97695.75;29395;198;63005;-55
2023/11/18 00:16:15;;;;;;;0.60;0.60;;;;;;;3.88;100.00;97694.13;29395;222;63009;-55
2023/11/18 00:16:47;;;;;;;0.60;0.60;;;;;;;3.88;100.00;97698.66;29395;289;63005;-55
2023/11/18 00:17:20;;;;;;;0.60;0.60;;;;;;;3.88;100.00;97699.47;29395;203;63009;-55
2023/11/18 00:17:52;;;;;;;0.60;0.60;;;;;;;3.88;100.00;97699.47;29395;221;63005;-55
2023/11/18 00:18:24;;;;;;;0.60;0.60;;;;;;;3.88;100.00;97693.28;29395;260;63009;-56
2023/11/18 00:18:55;;;;;;;0.50;0.50;;;;;;;3.88;100.00;97696.81;29395;225;63018;-55
2023/11/18 00:19:26;;;;;;;0.60;0.60;;;;;;;3.86;100.00;97696.22;29394;212;64013;-55
2023/11/18 00:19:58;;;;;;;0.50;0.50;;;;;;;3.88;100.00;97699.47;29395;204;63007;-55
2023/11/18 00:20:30;;;;;;;0.60;0.60;;;;;;;3.87;100.00;97697.84;29395;231;63009;-55
2023/11/18 00:21:02;;;;;;;0.60;0.60;;;;;;;3.88;100.00;97693.28;29395;247;63004;-55
2023/11/18 00:21:36;;;;;;;0.60;0.60;;;;;;;3.87;100.00;97694.34;29395;344;63008;-55
2023/11/18 00:22:07;;;;;;;0.50;0.50;;;;;;;3.88;100.00;97696.81;29395;216;63007;-62
2023/11/18 00:22:41;;;;;;;0.60;0.60;;;;;;;3.88;100.00;97695.97;29395;215;63019;-61
2023/11/18 00:23:12;;;;;;;0.60;0.60;;;;;;;3.88;100.00;97688.75;29395;224;63005;-55
2023/11/18 00:23:45;;;;;;;0.60;0.60;;;;;;;3.87;100.00;97697.84;29394;240;64013;-55
2023/11/18 00:24:16;;;;;;;0.50;0.50;;;;;;;3.88;100.00;97688.75;29395;208;63005;-55
2023/11/18 00:24:48;;;;;;;0.60;0.60;;;;;;;3.88;100.00;97688.75;29395;205;63009;-55
2023/11/18 00:25:19;;;;;;;0.60;0.60;;;;;;;3.89;100.00;97685.00;29395;259;63004;-55
2023/11/18 00:25:52;;;;;;;0.60;0.60;;;;;;;3.89;100.00;97694.94;29395;232;63009;-55
2023/11/18 00:26:25;;;;;;;0.60;0.60;;;;;;;3.88;100.00;97687.94;29395;278;63012;-55
2023/11/18 00:26:57;;;;;;;0.60;0.60;;;;;;;3.87;100.00;97688.97;29395;204;63008;-55
2023/11/18 00:27:28;;;;;;;0.57;0.57;;;;;;;3.88;100.00;97688.75;29395;290;63004;-55
2023/11/18 00:28:00;;;;;;;0.60;0.60;;;;;;;3.88;100.00;97693.28;29395;198;63008;-55
2023/11/18 00:28:32;;;;;;;0.60;0.60;;;;;;;3.87;100.00;97687.09;29395;225;63004;-55
2023/11/18 00:29:04;;;;;;;0.60;0.60;;;;;;;3.87;100.00;97689.78;29394;237;64013;-55
2023/11/18 00:29:37;;;;;;;0.60;0.60;;;;;;;3.87;100.00;97688.97;29395;203;63005;-61
2023/11/18 00:30:10;;;;;;;0.60;0.60;;;;;;;3.86;100.00;97690.84;29395;197;63009;-55
2023/11/18 00:30:43;;;;;;;0.60;0.60;;;;;;;3.88;100.00;97687.94;29395;265;63005;-55
2023/11/18 00:31:14;;;;;;;0.60;0.60;;;;;;;3.87;100.00;97691.66;29395;243;63009;-56
2023/11/18 00:31:46;;;;;;;0.60;0.60;;;;;;;3.86;100.00;97690.84;29395;203;63008;-55
2023/11/18 00:32:18;;;;;;;0.60;0.60;;;;;;;3.87;100.00;97691.66;29394;219;64013;-55
2023/11/18 00:32:53;;;;;;;0.57;0.57;;;;;;;3.86;100.00;97680.09;29395;257;63004;-56
2023/11/18 00:33:24;;;;;;;0.60;0.60;;;;;;;3.86;100.00;97681.97;29394;196;64013;-55
2023/11/18 00:33:56;;;;;;;0.60;0.60;;;;;;;3.87;100.00;97686.28;29395;210;63004;-55
2023/11/18 00:34:29;;;;;;;0.60;0.60;;;;;;;3.88;100.00;97688.75;29395;246;63009;-54
2023/11/18 00:35:00;;;;;;;0.60;0.60;;;;;;;3.89;100.00;97690.38;29394;273;64009;-54
2023/11/18 00:35:33;;;;;;;0.60;0.60;;;;;;;3.88;100.00;97683.37;29395;225;63008;-67
2023/11/18 00:36:06;;;;;;;0.60;0.60;;;;;;;3.88;100.00;97686.06;29395;288;63004;-55
2023/11/18 00:36:38;;;;;;;0.60;0.60;;;;;;;3.88;100.00;97693.28;29395;205;63009;-55
2023/11/18 00:37:11;;;;;;;0.60;0.60;;;;;;;3.89;100.00;97685.00;29394;218;64009;-55
2023/11/18 00:37:42;;;;;;;0.60;0.60;;;;;;;3.88;100.00;97694.13;29395;342;63009;-54
2023/11/18 00:38:14;;;;;;;0.60;0.60;;;;;;;3.88;100.00;97687.94;29395;203;63005;-56
2023/11/18 00:38:45;;;;;;;0.60;0.60;;;;;;;3.88;100.00;97688.75;29394;253;64028;-62
2023/11/18 00:39:16;;;;;;;0.60;0.60;;;;;;;3.88;100.00;97688.75;29395;244;63009;-54
2023/11/18 00:39:47;;;;;;;0.60;0.60;;;;;;;3.88;100.00;97688.75;29394;206;64013;-55
2023/11/18 00:40:19;;;;;;;0.60;0.60;;;;;;;3.89;100.00;97689.56;29395;251;63005;-54
2023/11/18 00:40:53;;;;;;;0.50;0.50;;;;;;;3.89;100.00;97689.56;29395;241;63009;-54
2023/11/18 00:41:26;;;;;;;0.60;0.60;;;;;;;3.88;100.00;97694.13;29394;302;64001;-54
2023/11/18 00:41:57;;;;;;;0.60;0.60;;;;;;;3.89;100.00;97690.38;29395;266;63009;-62
2023/11/18 00:42:29;;;;;;;0.60;0.60;;;;;;;3.90;100.00;97691.19;29395;238;63004;-54
2023/11/18 00:43:00;;;;;;;0.60;0.60;;;;;;;3.89;100.00;97690.38;29395;205;63008;-60
2023/11/18 00:43:31;;;;;;;0.60;0.60;;;;;;;3.89;100.00;97692.25;29395;337;63004;-54
2023/11/18 00:44:03;;;;;;;0.60;0.60;;;;;;;3.89;100.00;97689.56;29395;226;63009;-54
2023/11/18 00:44:34;;;;;;;0.60;0.60;;;;;;;3.87;100.00;97692.47;29395;237;63005;-54
2023/11/18 00:45:07;;;;;;;0.60;0.60;;;;;;;3.88;100.00;97699.47;29395;324;63009;-54
2023/11/18 00:45:39;;;;;;;0.60;0.60;;;;;;;3.88;100.00;97691.44;29395;197;63005;-54
2023/11/18 00:46:10;;;;;;;0.60;0.60;;;;;;;3.88;100.00;97687.94;29395;224;63009;-56
2023/11/18 00:46:42;;;;;;;0.60;0.60;;;;;;;3.89;100.00;97695.75;29394;202;64009;-54
2023/11/18 00:47:16;;;;;;;0.60;0.60;;;;;;;3.89;100.00;97690.38;29395;246;63009;-54
2023/11/18 00:47:48;;;;;;;0.52;0.52;;;;;;;3.89;100.00;97694.94;29394;209;64009;-54
2023/11/18 00:48:19;;;;;;;0.60;0.60;;;;;;;3.88;100.00;97699.47;29395;197;63009;-55
2023/11/18 00:48:51;;;;;;;0.60;0.60;;;;;;;3.88;100.00;97698.66;29395;221;63004;-56
2023/11/18 00:49:23;;;;;;;0.60;0.60;;;;;;;3.89;100.00;97693.06;29395;276;63009;-55
2023/11/18 00:49:55;;;;;;;0.60;0.60;;;;;;;3.90;100.00;97691.19;29395;212;63004;-54
2023/11/18 00:50:26;;;;;;;0.60;0.60;;;;;;;3.90;100.00;97685.84;29395;196;63007;-55
2023/11/18 00:50:58;;;;;;;0.60;0.60;;;;;;;3.91;100.00;97688.28;29395;218;63004;-54
2023/11/18 00:51:30;;;;;;;0.60;0.60;;;;;;;3.95;100.00;97683.28;29395;267;63026;-55
2023/11/18 00:52:05;;;;;;;0.60;0.60;;;;;;;3.98;100.00;97677.44;29395;228;63005;-54
2023/11/18 00:52:41;;;;;;;0.60;0.60;;;;;;;3.98;100.00;97689.00;29395;225;63009;-54
2023/11/18 00:53:12;;;;;;;0.60;0.60;;;;;;;3.97;100.00;97690.06;29394;254;64004;-55
2023/11/18 00:53:45;;;;;;;0.60;0.60;;;;;;;3.97;100.00;97687.38;29395;210;63013;-54
2023/11/18 00:54:16;;;;;;;0.60;0.60;;;;;;;3.98;100.00;97689.00;29395;209;63005;-55
2023/11/18 00:54:47;;;;;;;0.60;0.60;;;;;;;3.98;100.00;97689.00;29395;241;63009;-54
2023/11/18 00:55:20;;;;;;;0.60;0.60;;;;;;;3.98;100.00;97693.56;29395;203;63005;-62
2023/11/18 00:55:52;;;;;;;0.50;0.50;;;;;;;3.95;100.00;97694.00;29395;214;63023;-61
2023/11/18 00:56:23;;;;;;;0.60;0.60;;;;;;;3.93;100.00;97686.19;29395;207;63004;-54
2023/11/18 00:56:54;;;;;;;0.60;0.60;;;;;;;3.93;100.00;97696.94;29395;213;63009;-54
2023/11/18 00:57:25;;;;;;;0.60;0.60;;;;;;;3.92;100.00;97689.91;29395;268;63004;-54
2023/11/18 00:57:58;;;;;;;0.60;0.60;;;;;;;3.93;100.00;97696.94;29395;208;63020;-62
2023/11/18 00:58:29;;;;;;;0.60;0.60;;;;;;;3.93;100.00;97693.44;29394;198;64008;-54
2023/11/18 00:59:03;;;;;;;0.60;0.60;;;;;;;3.92;100.00;97689.09;29395;235;63020;-54
2023/11/18 00:59:35;;;;;;;0.60;0.60;;;;;;;3.91;100.00;97688.28;29395;203;63014;-55
2023/11/18 01:00:13;;;;;;;0.60;0.60;;;;;;;3.92;100.00;97689.09;29395;271;63009;-54
2023/11/18 01:00:45;;;;;;;0.60;0.60;;;;;;;3.95;100.00;97689.47;29395;203;63005;-54
2023/11/18 01:01:17;;;;;;;0.60;0.60;;;;;;;3.94;100.00;97687.81;29395;282;63009;-54
2023/11/18 01:01:49;;;;;;;0.60;0.60;;;;;;;3.93;100.00;97686.19;29395;224;63005;-54
2023/11/18 01:02:20;;;;;;;0.60;0.60;;;;;;;3.94;100.00;97685.13;29395;337;63009;-57
2023/11/18 01:02:53;;;;;;;0.60;0.60;;;;;;;3.94;100.00;97684.31;29395;206;63005;-54
2023/11/18 01:03:24;;;;;;;0.60;0.60;;;;;;;3.92;100.00;97687.25;29395;287;63025;-54
2023/11/18 01:03:59;;;;;;;0.60;0.60;;;;;;;3.91;100.00;97682.91;29394;230;64009;-54
2023/11/18 01:04:33;;;;;;;0.60;0.60;;;;;;;3.91;100.00;97682.91;29395;222;63009;-54
2023/11/18 01:05:05;;;;;;;0.60;0.60;;;;;;;3.92;100.00;97684.56;29395;211;63004;-55
2023/11/18 01:05:37;;;;;;;0.60;0.60;;;;;;;3.94;100.00;97687.00;29395;206;63008;-54
2023/11/18 01:06:08;;;;;;;0.60;0.60;;;;;;;3.94;100.00;97685.13;29395;350;63010;-54
2023/11/18 01:06:40;;;;;;;0.60;0.60;;;;;;;3.96;100.00;97682.22;29395;293;63009;-54
2023/11/18 01:07:12;;;;;;;0.60;0.60;;;;;;;3.94;100.00;97682.47;29395;340;63005;-54
2023/11/18 01:07:43;;;;;;;0.60;0.60;;;;;;;3.95;100.00;97684.09;29395;212;63009;-54
2023/11/18 01:08:15;;;;;;;0.60;0.60;;;;;;;3.94;100.00;97687.81;29394;203;64009;-55
2023/11/18 01:08:47;;;;;;;0.50;0.50;;;;;;;3.95;100.00;97694.84;29395;215;63009;-54
2023/11/18 01:09:18;;;;;;;0.60;0.60;;;;;;;3.94;100.00;97687.81;29395;219;63018;-54
2023/11/18 01:09:49;;;;;;;0.60;0.60;;;;;;;3.96;100.00;97691.09;29395;206;63009;-54
2023/11/18 01:10:21;;;;;;;0.60;0.60;;;;;;;3.94;100.00;97687.81;29395;211;63005;-55
2023/11/18 01:10:52;;;;;;;0.60;0.60;;;;;;;3.96;100.00;97691.09;29395;214;63009;-54
2023/11/18 01:11:24;;;;;;;0.60;0.60;;;;;;;4.01;100.00;97693.91;29395;226;63004;-54
2023/11/18 01:11:55;;;;;;;0.50;0.50;;;;;;;4.00;100.00;97692.28;29395;241;63015;-54
2023/11/18 01:12:27;;;;;;;0.60;0.60;;;;;;;4.00;100.00;97692.28;29395;222;63004;-56
2023/11/18 01:12:58;;;;;;;0.50;0.50;;;;;;;3.99;100.00;97690.63;29395;215;63009;-54
2023/11/18 01:13:30;;;;;;;0.60;0.60;;;;;;;3.97;100.00;97690.06;29394;196;64008;-54
2023/11/18 01:14:01;;;;;;;0.60;0.60;;;;;;;3.98;100.00;97691.69;29395;197;63018;-61
2023/11/18 01:14:34;;;;;;;0.60;0.60;;;;;;;3.98;100.00;97693.56;29395;293;63005;-63
2023/11/18 01:15:10;;;;;;;0.60;0.60;;;;;;;3.97;100.00;97698.09;29395;228;63009;-55
2023/11/18 01:15:41;;;;;;;0.60;0.60;;;;;;;3.96;100.00;97696.47;29395;331;63005;-55
2023/11/18 01:16:14;;;;;;;0.60;0.60;;;;;;;3.99;100.00;97696.00;29395;289;63009;-55
2023/11/18 01:16:46;;;;;;;0.60;0.60;;;;;;;4.00;100.00;97697.66;29395;218;63005;-61
2023/11/18 01:17:17;;;;;;;0.60;0.60;;;;;;;4.01;100.00;97693.09;29395;212;63009;-54
2023/11/18 01:17:48;;;;;;;0.60;0.60;;;;;;;3.99;100.00;97696.00;29395;197;63005;-54
2023/11/18 01:18:20;;;;;;;0.60;0.60;;;;;;;3.99;100.00;97696.00;29394;208;64013;-63
2023/11/18 01:18:52;;;;;;;0.60;0.60;;;;;;;4.00;100.00;97691.47;29394;198;64009;-54
2023/11/18 01:19:23;;;;;;;0.60;0.60;;;;;;;3.99;100.00;97692.50;29395;279;63009;-54
2023/11/18 01:19:55;;;;;;;0.60;0.60;;;;;;;4.00;100.00;97697.66;29395;261;63004;-54
2023/11/18 01:20:27;;;;;;;0.60;0.60;;;;;;;3.98;100.00;97699.75;29395;219;63018;-54
2023/11/18 01:20:58;;;;;;;0.60;0.60;;;;;;;3.99;100.00;97700.56;29395;199;63004;-53
2023/11/18 01:21:33;;;;;;;0.60;0.60;;;;;;;3.97;100.00;97703.47;29395;246;63009;-54
2023/11/18 01:22:08;;;;;;;0.60;0.60;;;;;;;3.96;100.00;97699.16;29395;280;63005;-54
2023/11/18 01:22:41;;;;;;;0.60;0.60;;;;;;;3.93;100.00;97702.31;29395;209;63009;-54
2023/11/18 01:23:13;;;;;;;0.60;0.60;;;;;;;3.94;100.00;97698.56;29395;225;63005;-54
2023/11/18 01:23:44;;;;;;;0.60;0.60;;;;;;;3.94;100.00;97695.06;29394;197;64013;-55
2023/11/18 01:24:18;;;;;;;0.60;0.60;;;;;;;3.94;100.00;97698.56;29395;204;63005;-54
2023/11/18 01:24:51;;;;;;;0.60;0.60;;;;;;;3.95;100.00;97694.00;29395;210;63009;-55
2023/11/18 01:25:22;;;;;;;0.60;0.60;;;;;;;3.95;100.00;97694.84;29395;315;63005;-55
2023/11/18 01:25:55;;;;;;;0.60;0.60;;;;;;;3.97;100.00;97697.28;29395;229;63009;-54
2023/11/18 01:26:27;;;;;;;0.60;0.60;;;;;;;3.97;100.00;97698.09;29395;240;63004;-54
2023/11/18 01:27:01;;;;;;;0.60;0.60;;;;;;;3.97;100.00;97714.22;29395;202;63019;-55
2023/11/18 01:27:35;;;;;;;0.60;0.60;;;;;;;3.96;100.00;97699.16;29395;285;63004;-55
2023/11/18 01:28:06;;;;;;;0.60;0.60;;;;;;;3.95;100.00;97699.37;29395;329;63009;-54
2023/11/18 01:28:41;;;;;;;0.50;0.50;;;;;;;3.95;100.00;97704.75;29395;202;63004;-54
2023/11/18 01:29:13;;;;;;;0.60;0.60;;;;;;;3.95;100.00;97707.44;29394;383;64014;-56
2023/11/18 01:29:44;;;;;;;0.60;0.60;;;;;;;3.95;100.00;97705.56;29394;222;64009;-55
2023/11/18 01:30:16;;;;;;;0.60;0.60;;;;;;;3.93;100.00;97699.63;29395;233;63027;-54
2023/11/18 01:30:47;;;;;;;0.60;0.60;;;;;;;3.95;100.00;97710.94;29395;222;63005;-53
2023/11/18 01:31:18;;;;;;;0.60;0.60;;;;;;;3.97;100.00;97708.84;29395;233;63009;-54
2023/11/18 01:31:50;;;;;;;0.60;0.60;;;;;;;3.95;100.00;97702.88;29395;196;63005;-54
2023/11/18 01:32:21;;;;;;;0.55;0.55;;;;;;;3.97;100.00;97711.53;29395;299;63009;-54
2023/11/18 01:32:53;;;;;;;0.60;0.60;;;;;;;3.97;100.00;97706.16;29394;198;64009;-54
2023/11/18 01:33:25;;;;;;;0.60;0.60;;;;;;;3.96;100.00;97712.59;29395;282;63009;-54
2023/11/18 01:33:56;;;;;;;0.60;0.60;;;;;;;3.96;100.00;97707.22;29395;230;63004;-55
2023/11/18 01:34:28;;;;;;;0.60;0.60;;;;;;;3.95;100.00;97702.88;29395;212;63015;-54
2023/11/18 01:34:59;;;;;;;0.60;0.60;;;;;;;3.95;100.00;97716.31;29395;225;63015;-54
2023/11/18 01:35:31;;;;;;;0.60;0.60;;;;;;;3.94;100.00;97709.31;29395;205;63008;-56
2023/11/18 01:36:03;;;;;;;0.60;0.60;;;;;;;3.95;100.00;97710.12;29394;257;64008;-53
2023/11/18 01:36:35;;;;;;;0.50;0.50;;;;;;;3.96;100.00;97706.37;29395;197;63009;-54
2023/11/18 01:37:07;;;;;;;0.60;0.60;;;;;;;3.99;100.00;97711.31;29394;230;64005;-54
2023/11/18 01:37:38;;;;;;;0.60;0.60;;;;;;;3.99;100.00;97714.81;29394;234;64013;-54
2023/11/18 01:38:11;;;;;;;0.60;0.60;;;;;;;3.98;100.00;97715.84;29395;208;63005;-54
2023/11/18 01:38:43;;;;;;;0.60;0.60;;;;;;;3.98;100.00;97710.50;29395;197;63009;-54
2023/11/18 01:39:15;;;;;;;0.60;0.60;;;;;;;4.00;100.00;97710.25;29395;203;63005;-54
2023/11/18 01:39:46;;;;;;;0.60;0.60;;;;;;;3.98;100.00;97710.50;29395;214;63009;-54
2023/11/18 01:40:17;;;;;;;0.50;0.50;;;;;;;3.99;100.00;97712.13;29395;271;63004;-53
2023/11/18 01:40:48;;;;;;;0.60;0.60;;;;;;;3.99;100.00;97712.13;29395;218;63009;-54
2023/11/18 01:41:20;;;;;;;0.60;0.60;;;;;;;3.99;100.00;97717.50;29394;253;64009;-54
2023/11/18 01:41:52;;;;;;;0.60;0.60;;;;;;;4.00;100.00;97716.44;29395;226;63009;-55
2023/11/18 01:42:24;;;;;;;0.57;0.57;;;;;;;4.01;100.00;97712.72;29395;203;63004;-54
2023/11/18 01:42:56;;;;;;;0.60;0.60;;;;;;;4.04;100.00;97716.81;29395;205;63008;-55
2023/11/18 01:43:27;;;;;;;0.50;0.50;;;;;;;4.06;100.00;97719.25;29395;267;63005;-57
2023/11/18 01:43:59;;;;;;;0.60;0.60;;;;;;;4.06;100.00;97721.94;29395;219;63009;-56
2023/11/18 01:44:33;;;;;;;0.60;0.60;;;;;;;4.09;100.00;97721.50;29395;230;63005;-54
2023/11/18 01:45:11;;;;;;;0.60;0.60;;;;;;;4.08;100.00;97720.66;29395;332;63009;-54
2023/11/18 01:45:42;;;;;;;0.60;0.60;;;;;;;4.06;100.00;97721.94;29395;285;63005;-53
2023/11/18 01:46:16;;;;;;;0.60;0.60;;;;;;;4.04;100.00;97725.69;29395;219;63009;-54
2023/11/18 01:46:48;;;;;;;0.60;0.60;;;;;;;4.04;100.00;97720.31;29394;303;64009;-54
2023/11/18 01:47:19;;;;;;;0.60;0.60;;;;;;;4.04;100.00;97722.19;29395;215;63009;-56
2023/11/18 01:47:51;;;;;;;0.60;0.60;;;;;;;4.04;100.00;97725.69;29395;213;63004;-54
2023/11/18 01:48:26;;;;;;;0.60;0.60;;;;;;;4.08;100.00;97731.41;29395;281;63009;-54
2023/11/18 01:48:58;;;;;;;0.60;0.60;;;;;;;4.08;100.00;97727.91;29395;249;63004;-54
2023/11/18 01:49:30;;;;;;;0.60;0.60;;;;;;;4.08;100.00;97720.66;29395;207;63009;-53
2023/11/18 01:50:02;;;;;;;0.60;0.60;;;;;;;4.07;100.00;97723.59;29395;244;63004;-54
2023/11/18 01:50:40;;;;;;;0.60;0.60;;;;;;;4.06;100.00;97716.56;29395;220;63008;-55
2023/11/18 01:51:14;;;;;;;0.60;0.60;;;;;;;4.05;100.00;97718.44;29395;349;63005;-54
2023/11/18 01:51:46;;;;;;;0.60;0.60;;;;;;;4.03;100.00;97713.31;29395;234;63009;-54
2023/11/18 01:52:18;;;;;;;0.60;0.60;;;;;;;4.03;100.00;97724.03;29394;235;64009;-56
2023/11/18 01:52:52;;;;;;;0.50;0.50;;;;;;;4.06;100.00;97721.94;29395;197;63012;-55
2023/11/18 01:53:24;;;;;;;0.60;0.60;;;;;;;4.06;100.00;97717.41;29395;221;63005;-54
2023/11/18 01:53:59;;;;;;;0.60;0.60;;;;;;;4.08;100.00;97719.84;29395;294;63009;-54
2023/11/18 01:54:32;;;;;;;0.60;0.60;;;;;;;4.06;100.00;97717.41;29395;283;63005;-55
2023/11/18 01:55:06;;;;;;;0.60;0.60;;;;;;;4.07;100.00;97718.22;29394;214;64013;-55
2023/11/18 01:55:38;;;;;;;0.50;0.50;;;;;;;4.07;100.00;97715.53;29395;224;63004;-54
2023/11/18 01:56:11;;;;;;;0.60;0.60;;;;;;;4.04;100.00;97717.62;29395;258;63009;-55
2023/11/18 01:56:46;;;;;;;0.60;0.60;;;;;;;4.10;100.00;97712.38;29395;300;63015;-54
2023/11/18 01:57:17;;;;;;;0.60;0.60;;;;;;;4.09;100.00;97716.94;29395;269;63009;-54
2023/11/18 01:57:51;;;;;;;0.60;0.60;;;;;;;4.08;100.00;97714.47;29394;294;64008;-54
2023/11/18 01:58:23;;;;;;;0.60;0.60;;;;;;;4.07;100.00;97715.53;29394;197;64013;-54
2023/11/18 01:58:55;;;;;;;0.60;0.60;;;;;;;4.04;100.00;97714.94;29395;216;63005;-54
2023/11/18 01:59:29;;;;;;;0.60;0.60;;;;;;;4.03;100.00;97709.78;29394;236;64014;-54
2023/11/18 02:00:06;;;;;;;0.60;0.60;;;;;;;4.02;100.00;97706.28;29394;198;64009;-55
2023/11/18 02:00:39;;;;;;;0.60;0.60;;;;;;;4.02;100.00;97705.47;29395;211;63009;-56
2023/11/18 02:01:11;;;;;;;0.60;0.60;;;;;;;4.02;100.00;97711.66;29395;257;63005;-54
2023/11/18 02:01:43;;;;;;;0.60;0.60;;;;;;;4.01;100.00;97703.84;29395;202;63009;-54
2023/11/18 02:02:18;;;;;;;0.50;0.50;;;;;;;4.00;100.00;97707.56;29394;233;64009;-54
2023/11/18 02:02:49;;;;;;;0.50;0.50;;;;;;;4.00;100.00;97708.38;29395;274;63009;-54
2023/11/18 02:03:20;;;;;;;0.60;0.60;;;;;;;3.98;100.00;97710.50;29395;262;63010;-54
2023/11/18 02:03:52;;;;;;;0.60;0.60;;;;;;;4.00;100.00;97702.19;29395;203;63004;-54
2023/11/18 02:04:24;;;;;;;0.60;0.60;;;;;;;3.99;100.00;97705.94;29395;211;63004;-54
2023/11/18 02:04:56;;;;;;;0.60;0.60;;;;;;;3.99;100.00;97705.94;29395;225;63025;-55
2023/11/18 02:05:27;;;;;;;0.60;0.60;;;;;;;3.98;100.00;97710.50;29395;199;63004;-54
2023/11/18 02:05:58;;;;;;;0.55;0.55;;;;;;;3.98;100.00;97704.28;29394;198;64014;-54
2023/11/18 02:06:29;;;;;;;0.55;0.55;;;;;;;3.98;100.00;97715.84;29395;206;63005;-54
2023/11/18 02:07:04;;;;;;;0.60;0.60;;;;;;;3.97;100.00;97708.84;29395;209;63009;-54
2023/11/18 02:07:37;;;;;;;0.50;0.50;;;;;;;3.97;100.00;97714.22;29395;198;63005;-54
2023/11/18 02:08:08;;;;;;;0.60;0.60;;;;;;;3.98;100.00;97707.81;29395;200;63009;-54
2023/11/18 02:08:41;;;;;;;0.60;0.60;;;;;;;3.98;100.00;97704.28;29395;205;63005;-54
2023/11/18 02:09:12;;;;;;;0.60;0.60;;;;;;;3.98;100.00;97710.50;29395;202;63009;-55
2023/11/18 02:09:45;;;;;;;0.57;0.57;;;;;;;3.97;100.00;97706.16;29395;220;63005;-54
2023/11/18 02:10:17;;;;;;;0.60;0.60;;;;;;;3.98;100.00;97705.13;29395;202;63009;-54
2023/11/18 02:10:57;;;;;;;0.60;0.60;;;;;;;3.97;100.00;97708.84;29395;263;63004;-54
2023/11/18 02:11:41;;;;;;;0.50;0.50;;;;;;;3.97;100.00;97705.34;29376;270;126013;-54
2023/11/18 02:13:00;;;;;;;0.55;0.55;;;;;;;3.95;100.00;97708.25;29373;295;63000;-54
2023/11/18 02:13:37;;;;;;;0.60;0.60;;;;;;;3.97;100.00;97708.84;29395;196;63019;-54
2023/11/18 02:14:13;;;;;;;0.60;0.60;;;;;;;3.96;100.00;97707.22;29395;268;63001;-55
2023/11/18 02:14:46;;;;;;;0.60;0.60;;;;;;;3.98;100.00;97709.66;29395;219;63005;-54
2023/11/18 02:15:19;;;;;;;0.60;0.60;;;;;;;3.98;100.00;97705.13;29394;309;64005;-54
2023/11/18 02:15:52;;;;;;;0.60;0.60;;;;;;;3.99;100.00;97703.25;29394;242;64009;-54
2023/11/18 02:16:25;;;;;;;0.60;0.60;;;;;;;3.99;100.00;97711.31;29395;360;63005;-54
2023/11/18 02:17:01;;;;;;;0.60;0.60;;;;;;;3.98;100.00;97706.97;29395;202;63009;-54
2023/11/18 02:17:34;;;;;;;0.60;0.60;;;;;;;3.97;100.00;97714.22;29395;220;63008;-54
2023/11/18 02:18:11;;;;;;;0.60;0.60;;;;;;;3.97;100.00;97714.22;29395;224;63020;-54
2023/11/18 02:18:43;;;;;;;0.60;0.60;;;;;;;3.97;100.00;97713.41;29395;254;63016;-54
2023/11/18 02:19:21;;;;;;;0.60;0.60;;;;;;;3.97;100.00;97702.66;29394;196;64009;-55
2023/11/18 02:19:55;;;;;;;0.60;0.60;;;;;;;3.96;100.00;97709.91;29395;229;63004;-54
2023/11/18 02:20:30;;;;;;;0.60;0.60;;;;;;;3.97;100.00;97711.53;29395;222;63008;-54
2023/11/18 02:21:04;;;;;;;0.60;0.60;;;;;;;3.96;100.00;97707.22;29395;205;63004;-55
2023/11/18 02:21:37;;;;;;;0.60;0.60;;;;;;;3.96;100.00;97712.59;29395;221;63009;-54
2023/11/18 02:22:11;;;;;;;0.60;0.60;;;;;;;3.96;100.00;97712.59;29395;269;63005;-53
2023/11/18 02:22:48;;;;;;;0.60;0.60;;;;;;;3.96;100.00;97712.59;29395;203;63009;-54
2023/11/18 02:23:21;;;;;;;0.60;0.60;;;;;;;3.94;100.00;97712.00;29394;283;64005;-55
2023/11/18 02:23:53;;;;;;;0.60;0.60;;;;;;;3.95;100.00;97705.56;29395;265;63009;-54
2023/11/18 02:24:36;;;;;;;0.60;0.60;;;;;;;3.94;100.00;97714.69;29395;214;63008;-56
2023/11/18 02:25:10;;;;;;;0.60;0.60;;;;;;;3.95;100.00;97712.81;29395;216;63009;-54
2023/11/18 02:25:47;;;;;;;0.60;0.60;;;;;;;3.95;100.00;97704.75;29394;227;64004;-54
2023/11/18 02:26:23;;;;;;;0.60;0.60;;;;;;;3.99;100.00;97704.06;29394;197;64009;-55
2023/11/18 02:26:57;;;;;;;0.60;0.60;;;;;;;4.01;100.00;97703.84;29395;239;63004;-55
2023/11/18 02:27:28;;;;;;;0.60;0.60;;;;;;;3.99;100.00;97701.38;29395;216;63009;-61
2023/11/18 02:28:00;;;;;;;0.60;0.60;;;;;;;3.97;100.00;97703.47;29395;202;63004;-54
2023/11/18 02:28:31;;;;;;;0.60;0.60;;;;;;;3.96;100.00;97704.53;29395;196;63008;-54
2023/11/18 02:29:04;;;;;;;0.60;0.60;;;;;;;3.96;100.00;97701.03;29395;231;63005;-55
2023/11/18 02:29:40;;;;;;;0.60;0.60;;;;;;;3.97;100.00;97698.09;29395;209;63009;-54
2023/11/18 02:30:16;;;;;;;0.60;0.60;;;;;;;3.97;100.00;97700.78;29395;294;63005;-54
2023/11/18 02:30:50;;;;;;;0.60;0.60;;;;;;;3.98;100.00;97710.50;29395;291;63009;-55
2023/11/18 02:31:32;;;;;;;0.60;0.60;;;;;;;3.97;100.00;97703.47;29394;199;64005;-54
2023/11/18 02:32:44;;;;;;;0.50;0.50;;;;;;;3.97;100.00;97700.78;29395;241;63009;-54
2023/11/18 02:33:33;;;;;;;0.60;0.60;;;;;;;4.04;100.00;97703.38;29394;281;64009;-54
2023/11/18 02:34:15;;;;;;;0.60;0.60;;;;;;;4.03;100.00;97696.38;29395;203;63004;-54
2023/11/18 02:35:29;;;;;;;0.60;0.60;;;;;;;4.00;100.00;97702.19;29395;235;63024;-54
2023/11/18 02:36:19;;;;;;;0.60;0.60;;;;;;;3.96;100.00;97704.53;29395;295;63004;-54
2023/11/18 02:36:53;;;;;;;0.60;0.60;;;;;;;3.94;100.00;97709.31;29395;220;63009;-54
2023/11/18 02:37:27;;;;;;;0.60;0.60;;;;;;;3.95;100.00;97707.44;29395;228;63005;-54
2023/11/18 02:38:00;;;;;;;0.70;0.70;;;;;;;3.96;100.00;97711.75;29394;197;64009;-54